sensor_id;sensor_type;location;lat;lon;timestamp;pressure;altitude;pressure_sealevel;temperature;humidity
65754;BME280;69207;47.502;18.940;2023-07-22T00:00:15;97693.91;;;16.00;100.00
65754;BME280;69207;47.502;18.940;2023-07-22T00:01:19;97692.47;;;15.99;100.00
65754;BME280;69207;47.502;18.940;2023-07-22T00:02:22;97685.59;;;16.00;100.00
65754;BME280;69207;47.502;18.940;2023-07-22T00:03:25;97687.09;;;16.03;100.00
65754;BME280;69207;47.502;18.940;2023-07-22T00:04:28;97685.03;;;16.03;100.00
65754;BME280;69207;47.502;18.940;2023-07-22T00:05:31;97686.31;;;16.00;100.00
65754;BME280;69207;47.502;18.940;2023-07-22T00:06:34;97693.03;;;15.95;100.00
65754;BME280;69207;47.502;18.940;2023-07-22T00:07:37;97684.63;;;15.93;100.00
65754;BME280;69207;47.502;18.940;2023-07-22T00:08:40;97694.28;;;15.92;100.00
65754;BME280;69207;47.502;18.940;2023-07-22T00:09:43;97692.16;;;15.91;100.00
65754;BME280;69207;47.502;18.940;2023-07-22T00:10:46;97686.69;;;15.93;100.00
65754;BME280;69207;47.502;18.940;2023-07-22T00:11:50;97685.19;;;15.90;100.00
65754;BME280;69207;47.502;18.940;2023-07-22T00:12:53;97684.31;;;15.85;100.00
65754;BME280;69207;47.502;18.940;2023-07-22T00:13:55;97679.41;;;15.83;100.00
65754;BME280;69207;47.502;18.940;2023-07-22T00:14:58;97682.06;;;15.81;100.00
65754;BME280;69207;47.502;18.940;2023-07-22T00:16:02;97692.28;;;15.77;100.00
65754;BME280;69207;47.502;18.940;2023-07-22T00:17:10;97697.00;;;15.74;100.00
65754;BME280;69207;47.502;18.940;2023-07-22T00:18:13;97703.91;;;15.73;100.00
65754;BME280;69207;47.502;18.940;2023-07-22T00:19:16;97702.47;;;15.72;100.00
65754;BME280;69207;47.502;18.940;2023-07-22T00:20:23;97699.00;;;15.72;100.00
65754;BME280;69207;47.502;18.940;2023-07-22T00:21:26;97703.19;;;15.73;100.00
65754;BME280;69207;47.502;18.940;2023-07-22T00:22:29;97699.72;;;15.72;100.00
65754;BME280;69207;47.502;18.940;2023-07-22T00:23:32;97703.00;;;15.69;100.00
65754;BME280;69207;47.502;18.940;2023-07-22T00:24:35;97696.06;;;15.68;100.00
65754;BME280;69207;47.502;18.940;2023-07-22T00:25:38;97689.81;;;15.67;100.00
65754;BME280;69207;47.502;18.940;2023-07-22T00:26:41;97697.41;;;15.67;100.00
65754;BME280;69207;47.502;18.940;2023-07-22T00:27:45;97690.44;;;15.66;100.00
65754;BME280;69207;47.502;18.940;2023-07-22T00:28:48;97684.91;;;15.66;100.00
65754;BME280;69207;47.502;18.940;2023-07-22T00:29:51;97689.09;;;15.67;100.00
65754;BME280;69207;47.502;18.940;2023-07-22T00:30:53;97680.16;;;15.68;100.00
65754;BME280;69207;47.502;18.940;2023-07-22T00:31:56;97681.56;;;15.69;100.00
65754;BME280;69207;47.502;18.940;2023-07-22T00:32:59;97678.25;;;15.73;100.00
65754;BME280;69207;47.502;18.940;2023-07-22T00:34:03;97674.16;;;15.74;100.00
65754;BME280;69207;47.502;18.940;2023-07-22T00:35:06;97681.09;;;15.75;100.00
65754;BME280;69207;47.502;18.940;2023-07-22T00:36:09;97672.16;;;15.76;100.00
65754;BME280;69207;47.502;18.940;2023-07-22T00:37:12;97675.03;;;15.78;100.00
65754;BME280;69207;47.502;18.940;2023-07-22T00:38:15;97677.16;;;15.80;100.00
65754;BME280;69207;47.502;18.940;2023-07-22T00:39:18;97676.47;;;15.79;100.00
65754;BME280;69207;47.502;18.940;2023-07-22T00:40:22;97669.50;;;15.78;100.00
65754;BME280;69207;47.502;18.940;2023-07-22T00:41:25;97675.81;;;15.81;100.00
65754;BME280;69207;47.502;18.940;2023-07-22T00:42:28;97679.47;;;15.86;100.00
65754;BME280;69207;47.502;18.940;2023-07-22T00:43:31;97675.28;;;15.84;100.00
65754;BME280;69207;47.502;18.940;2023-07-22T00:44:34;97680.81;;;15.84;100.00
65754;BME280;69207;47.502;18.940;2023-07-22T00:45:37;97684.31;;;15.85;100.00
65754;BME280;69207;47.502;18.940;2023-07-22T00:46:39;97684.84;;;15.81;100.00
65754;BME280;69207;47.502;18.940;2023-07-22T00:47:43;97689.06;;;15.82;100.00
65754;BME280;69207;47.502;18.940;2023-07-22T00:48:47;97685.00;;;15.86;100.00
65754;BME280;69207;47.502;18.940;2023-07-22T00:49:51;97685.81;;;15.88;100.00
65754;BME280;69207;47.502;18.940;2023-07-22T00:50:54;97673.94;;;15.86;100.00
65754;BME280;69207;47.502;18.940;2023-07-22T00:52:00;97688.31;;;15.82;100.00
65754;BME280;69207;47.502;18.940;2023-07-22T00:53:05;97692.37;;;15.79;100.00
65754;BME280;69207;47.502;18.940;2023-07-22T00:54:08;97702.72;;;15.78;100.00
65754;BME280;69207;47.502;18.940;2023-07-22T00:55:12;97706.91;;;15.79;100.00
65754;BME280;69207;47.502;18.940;2023-07-22T00:56:15;97702.03;;;15.78;100.00
65754;BME280;69207;47.502;18.940;2023-07-22T00:57:18;97711.66;;;15.77;100.00
65754;BME280;69207;47.502;18.940;2023-07-22T00:58:22;97703.38;;;15.77;100.00
65754;BME280;69207;47.502;18.940;2023-07-22T00:59:25;97709.50;;;15.75;100.00
65754;BME280;69207;47.502;18.940;2023-07-22T01:00:28;97711.56;;;15.75;100.00
65754;BME280;69207;47.502;18.940;2023-07-22T01:01:31;97716.47;;;15.76;100.00
65754;BME280;69207;47.502;18.940;2023-07-22T01:02:34;97716.47;;;15.76;100.00
65754;BME280;69207;47.502;18.940;2023-07-22T01:03:37;97723.47;;;15.77;100.00
65754;BME280;69207;47.502;18.940;2023-07-22T01:04:40;97726.12;;;15.75;100.00
65754;BME280;69207;47.502;18.940;2023-07-22T01:05:43;97730.31;;;15.76;100.00
65754;BME280;69207;47.502;18.940;2023-07-22T01:06:47;97729.00;;;15.77;100.00
65754;BME280;69207;47.502;18.940;2023-07-22T01:07:51;97732.56;;;15.80;100.00
65754;BME280;69207;47.502;18.940;2023-07-22T01:08:54;97735.34;;;15.80;100.00
65754;BME280;69207;47.502;18.940;2023-07-22T01:09:57;97733.97;;;15.81;100.00
65754;BME280;69207;47.502;18.940;2023-07-22T01:11:04;97732.81;;;15.86;100.00
65754;BME280;69207;47.502;18.940;2023-07-22T01:12:07;97739.88;;;15.89;100.00
65754;BME280;69207;47.502;18.940;2023-07-22T01:13:11;97738.59;;;15.92;100.00
65754;BME280;69207;47.502;18.940;2023-07-22T01:14:14;97736.66;;;15.95;100.00
65754;BME280;69207;47.502;18.940;2023-07-22T01:15:17;97737.34;;;15.95;100.00
65754;BME280;69207;47.502;18.940;2023-07-22T01:16:20;97735.22;;;15.94;100.00
65754;BME280;69207;47.502;18.940;2023-07-22T01:17:23;97742.00;;;15.91;100.00
65754;BME280;69207;47.502;18.940;2023-07-22T01:18:28;97741.22;;;15.88;100.00
65754;BME280;69207;47.502;18.940;2023-07-22T01:19:32;97741.84;;;15.87;100.00
65754;BME280;69207;47.502;18.940;2023-07-22T01:20:35;97744.59;;;15.87;100.00
65754;BME280;69207;47.502;18.940;2023-07-22T01:21:39;97743.25;;;15.88;100.00
65754;BME280;69207;47.502;18.940;2023-07-22T01:22:52;97740.50;;;15.88;100.00
65754;BME280;69207;47.502;18.940;2023-07-22T01:23:56;97742.72;;;15.91;100.00
65754;BME280;69207;47.502;18.940;2023-07-22T01:25:00;97741.38;;;15.92;100.00
65754;BME280;69207;47.502;18.940;2023-07-22T01:26:03;97747.56;;;15.91;100.00
65754;BME280;69207;47.502;18.940;2023-07-22T01:27:09;97739.97;;;15.91;100.00
65754;BME280;69207;47.502;18.940;2023-07-22T01:28:12;97751.03;;;15.91;100.00
65754;BME280;69207;47.502;18.940;2023-07-22T01:29:15;97748.19;;;15.89;100.00
65754;BME280;69207;47.502;18.940;2023-07-22T01:30:18;97749.53;;;15.88;100.00
65754;BME280;69207;47.502;18.940;2023-07-22T01:31:22;97750.97;;;15.89;100.00
65754;BME280;69207;47.502;18.940;2023-07-22T01:32:24;97751.66;;;15.90;100.00
65754;BME280;69207;47.502;18.940;2023-07-22T01:33:27;97753.09;;;15.91;100.00
65754;BME280;69207;47.502;18.940;2023-07-22T01:34:30;97753.72;;;15.89;100.00
65754;BME280;69207;47.502;18.940;2023-07-22T01:35:34;97757.84;;;15.88;100.00
65754;BME280;69207;47.502;18.940;2023-07-22T01:36:37;97748.97;;;15.92;100.00
65754;BME280;69207;47.502;18.940;2023-07-22T01:37:40;97762.94;;;15.94;100.00
65754;BME280;69207;47.502;18.940;2023-07-22T01:38:43;97751.84;;;15.94;100.00
65754;BME280;69207;47.502;18.940;2023-07-22T01:39:46;97757.38;;;15.94;100.00
65754;BME280;69207;47.502;18.940;2023-07-22T01:40:49;97758.00;;;15.92;100.00
65754;BME280;69207;47.502;18.940;2023-07-22T01:41:52;97762.53;;;16.01;100.00
65754;BME280;69207;47.502;18.940;2023-07-22T01:42:54;97761.84;;;16.01;100.00
65754;BME280;69207;47.502;18.940;2023-07-22T01:43:57;97762.38;;;15.97;100.00
65754;BME280;69207;47.502;18.940;2023-07-22T01:45:00;97765.06;;;15.95;100.00
65754;BME280;69207;47.502;18.940;2023-07-22T01:46:03;97771.31;;;15.96;100.00
65754;BME280;69207;47.502;18.940;2023-07-22T01:47:06;97773.44;;;15.97;100.00
65754;BME280;69207;47.502;18.940;2023-07-22T01:48:09;97767.84;;;15.95;100.00
65754;BME280;69207;47.502;18.940;2023-07-22T01:49:12;97775.59;;;15.99;100.00
65754;BME280;69207;47.502;18.940;2023-07-22T01:50:15;97774.87;;;15.98;100.00
65754;BME280;69207;47.502;18.940;2023-07-22T01:51:18;97778.28;;;15.97;100.00
65754;BME280;69207;47.502;18.940;2023-07-22T01:52:21;97772.03;;;15.96;100.00
65754;BME280;69207;47.502;18.940;2023-07-22T01:53:24;97774.72;;;15.94;100.00
65754;BME280;69207;47.502;18.940;2023-07-22T01:54:27;97784.34;;;15.93;100.00
65754;BME280;69207;47.502;18.940;2023-07-22T01:55:30;97784.91;;;15.90;100.00
65754;BME280;69207;47.502;18.940;2023-07-22T01:56:33;97777.94;;;15.89;100.00
65754;BME280;69207;47.502;18.940;2023-07-22T01:57:35;97782.78;;;15.88;100.00
65754;BME280;69207;47.502;18.940;2023-07-22T01:58:39;97782.66;;;15.86;100.00
65754;BME280;69207;47.502;18.940;2023-07-22T01:59:42;97786.41;;;15.93;100.00
65754;BME280;69207;47.502;18.940;2023-07-22T02:00:49;97780.97;;;15.95;100.00
65754;BME280;69207;47.502;18.940;2023-07-22T02:01:52;97783.03;;;15.94;100.00
65754;BME280;69207;47.502;18.940;2023-07-22T02:02:55;97785.63;;;15.90;100.00
65754;BME280;69207;47.502;18.940;2023-07-22T02:03:59;97790.28;;;15.86;100.00
65754;BME280;69207;47.502;18.940;2023-07-22T02:05:02;97786.00;;;15.82;100.00
65754;BME280;69207;47.502;18.940;2023-07-22T02:06:06;97790.00;;;15.79;100.00
65754;BME280;69207;47.502;18.940;2023-07-22T02:07:09;97789.94;;;15.77;100.00
65754;BME280;69207;47.502;18.940;2023-07-22T02:08:12;97789.22;;;15.77;100.00
65754;BME280;69207;47.502;18.940;2023-07-22T02:09:15;97792.06;;;15.79;100.00
65754;BME280;69207;47.502;18.940;2023-07-22T02:10:18;97801.72;;;15.78;100.00
65754;BME280;69207;47.502;18.940;2023-07-22T02:11:21;97793.31;;;15.76;100.00
65754;BME280;69207;47.502;18.940;2023-07-22T02:12:24;97790.53;;;15.76;100.00
65754;BME280;69207;47.502;18.940;2023-07-22T02:13:27;97800.81;;;15.73;100.00
65754;BME280;69207;47.502;18.940;2023-07-22T02:14:30;97796.72;;;15.74;100.00
65754;BME280;69207;47.502;18.940;2023-07-22T02:15:33;97803.22;;;15.81;100.00
65754;BME280;69207;47.502;18.940;2023-07-22T02:16:37;97803.94;;;15.81;100.00
65754;BME280;69207;47.502;18.940;2023-07-22T02:17:40;97807.97;;;15.78;100.00
65754;BME280;69207;47.502;18.940;2023-07-22T02:18:44;97803.69;;;15.75;100.00
65754;BME280;69207;47.502;18.940;2023-07-22T02:19:47;97808.50;;;15.75;100.00
65754;BME280;69207;47.502;18.940;2023-07-22T02:20:50;97802.88;;;15.73;100.00
65754;BME280;69207;47.502;18.940;2023-07-22T02:21:52;97802.88;;;15.73;100.00
65754;BME280;69207;47.502;18.940;2023-07-22T02:22:55;97800.81;;;15.73;100.00
65754;BME280;69207;47.502;18.940;2023-07-22T02:23:58;97805.72;;;15.75;100.00
65754;BME280;69207;47.502;18.940;2023-07-22T02:25:01;97812.63;;;15.74;100.00
65754;BME280;69207;47.502;18.940;2023-07-22T02:26:04;97812.63;;;15.74;100.00
65754;BME280;69207;47.502;18.940;2023-07-22T02:27:07;97816.09;;;15.74;100.00
65754;BME280;69207;47.502;18.940;2023-07-22T02:28:11;97820.22;;;15.73;100.00
65754;BME280;69207;47.502;18.940;2023-07-22T02:29:14;97814.03;;;15.75;100.00
65754;BME280;69207;47.502;18.940;2023-07-22T02:30:17;97812.81;;;15.78;100.00
65754;BME280;69207;47.502;18.940;2023-07-22T02:31:20;97815.38;;;15.74;100.00
65754;BME280;69207;47.502;18.940;2023-07-22T02:32:25;97814.03;;;15.75;100.00
65754;BME280;69207;47.502;18.940;2023-07-22T02:33:28;97812.63;;;15.74;100.00
65754;BME280;69207;47.502;18.940;2023-07-22T02:34:31;97810.47;;;15.72;100.00
65754;BME280;69207;47.502;18.940;2023-07-22T02:35:34;97802.97;;;15.75;100.00
65754;BME280;69207;47.502;18.940;2023-07-22T02:36:36;97805.72;;;15.75;100.00
65754;BME280;69207;47.502;18.940;2023-07-22T02:37:39;97800.81;;;15.73;100.00
65754;BME280;69207;47.502;18.940;2023-07-22T02:38:43;97804.50;;;15.78;100.00
65754;BME280;69207;47.502;18.940;2023-07-22T02:39:46;97807.78;;;15.74;100.00
65754;BME280;69207;47.502;18.940;2023-07-22T02:40:49;97804.31;;;15.74;100.00
65754;BME280;69207;47.502;18.940;2023-07-22T02:41:52;97813.97;;;15.73;100.00
65754;BME280;69207;47.502;18.940;2023-07-22T02:42:55;97817.25;;;15.69;100.00
65754;BME280;69207;47.502;18.940;2023-07-22T02:43:57;97822.78;;;15.69;100.00
65754;BME280;69207;47.502;18.940;2023-07-22T02:45:01;97822.53;;;15.79;100.00
65754;BME280;69207;47.502;18.940;2023-07-22T02:46:05;97825.31;;;15.79;100.00
65754;BME280;69207;47.502;18.940;2023-07-22T02:47:10;97820.28;;;15.75;100.00
65754;BME280;69207;47.502;18.940;2023-07-22T02:48:13;97818.06;;;15.72;100.00
65754;BME280;69207;47.502;18.940;2023-07-22T02:49:17;97824.06;;;15.66;100.00
65754;BME280;69207;47.502;18.940;2023-07-22T02:50:19;97831.56;;;15.64;100.00
65754;BME280;69207;47.502;18.940;2023-07-22T02:51:22;97829.59;;;15.66;100.00
65754;BME280;69207;47.502;18.940;2023-07-22T02:52:25;97824.78;;;15.67;100.00
65754;BME280;69207;47.502;18.940;2023-07-22T02:53:28;97827.63;;;15.69;100.00
65754;BME280;69207;47.502;18.940;2023-07-22T02:54:31;97830.31;;;15.67;100.00
65754;BME280;69207;47.502;18.940;2023-07-22T02:55:34;97832.25;;;15.64;100.00
65754;BME280;69207;47.502;18.940;2023-07-22T02:56:37;97823.25;;;15.64;100.00
65754;BME280;69207;47.502;18.940;2023-07-22T02:57:41;97827.44;;;15.65;100.00
65754;BME280;69207;47.502;18.940;2023-07-22T02:58:44;97831.22;;;15.71;100.00
65754;BME280;69207;47.502;18.940;2023-07-22T02:59:47;97826.72;;;15.80;100.00
65754;BME280;69207;47.502;18.940;2023-07-22T03:00:50;97828.59;;;15.75;100.00
65754;BME280;69207;47.502;18.940;2023-07-22T03:01:53;97823.69;;;15.74;100.00
65754;BME280;69207;47.502;18.940;2023-07-22T03:02:56;97828.00;;;15.77;100.00
65754;BME280;69207;47.502;18.940;2023-07-22T03:04:07;97830.75;;;15.77;100.00
65754;BME280;69207;47.502;18.940;2023-07-22T03:05:10;97837.47;;;15.72;100.00
65754;BME280;69207;47.502;18.940;2023-07-22T03:06:14;97843.16;;;15.76;100.00
65754;BME280;69207;47.502;18.940;2023-07-22T03:07:16;97842.91;;;15.70;100.00
65754;BME280;69207;47.502;18.940;2023-07-22T03:08:19;97837.34;;;15.70;100.00
65754;BME280;69207;47.502;18.940;2023-07-22T03:09:22;97847.62;;;15.67;100.00
65754;BME280;69207;47.502;18.940;2023-07-22T03:10:25;97841.66;;;15.73;100.00
65754;BME280;69207;47.502;18.940;2023-07-22T03:11:28;97847.09;;;15.71;100.00
65754;BME280;69207;47.502;18.940;2023-07-22T03:12:32;97845.66;;;15.70;100.00
65754;BME280;69207;47.502;18.940;2023-07-22T03:13:35;97846.47;;;15.72;100.00
65754;BME280;69207;47.502;18.940;2023-07-22T03:14:38;97844.44;;;15.89;100.00
65754;BME280;69207;47.502;18.940;2023-07-22T03:15:40;97849.06;;;15.84;100.00
65754;BME280;69207;47.502;18.940;2023-07-22T03:16:43;97841.09;;;15.76;100.00
65754;BME280;69207;47.502;18.940;2023-07-22T03:17:46;97845.94;;;15.76;100.00
65754;BME280;69207;47.502;18.940;2023-07-22T03:18:49;97841.03;;;15.74;100.00
65754;BME280;69207;47.502;18.940;2023-07-22T03:19:52;97845.47;;;15.81;100.00
65754;BME280;69207;47.502;18.940;2023-07-22T03:20:56;97846.13;;;15.80;100.00
65754;BME280;69207;47.502;18.940;2023-07-22T03:21:59;97838.72;;;15.84;100.00
65754;BME280;69207;47.502;18.940;2023-07-22T03:23:03;97839.16;;;15.79;100.00
65754;BME280;69207;47.502;18.940;2023-07-22T03:24:06;97827.00;;;15.86;100.00
65754;BME280;69207;47.502;18.940;2023-07-22T03:25:10;97835.31;;;15.86;100.00
65754;BME280;69207;47.502;18.940;2023-07-22T03:26:12;97850.50;;;15.85;100.00
65754;BME280;69207;47.502;18.940;2023-07-22T03:27:15;97848.38;;;15.83;100.00
65754;BME280;69207;47.502;18.940;2023-07-22T03:28:20;97838.59;;;15.98;100.00
65754;BME280;69207;47.502;18.940;2023-07-22T03:29:22;97851.28;;;16.03;100.00
65754;BME280;69207;47.502;18.940;2023-07-22T03:30:27;97840.84;;;16.02;100.00
65754;BME280;69207;47.502;18.940;2023-07-22T03:31:29;97846.03;;;15.94;100.00
65754;BME280;69207;47.502;18.940;2023-07-22T03:32:33;97846.81;;;15.96;100.00
65754;BME280;69207;47.502;18.940;2023-07-22T03:33:36;97839.88;;;15.95;100.00
65754;BME280;69207;47.502;18.940;2023-07-22T03:34:39;97839.03;;;15.93;100.00
65754;BME280;69207;47.502;18.940;2023-07-22T03:35:42;97841.81;;;15.93;100.00
65754;BME280;69207;47.502;18.940;2023-07-22T03:36:45;97835.56;;;15.92;100.00
65754;BME280;69207;47.502;18.940;2023-07-22T03:37:49;97834.22;;;15.93;100.00
65754;BME280;69207;47.502;18.940;2023-07-22T03:38:52;97843.34;;;15.96;100.00
65754;BME280;69207;47.502;18.940;2023-07-22T03:39:55;97841.38;;;15.98;100.00
65754;BME280;69207;47.502;18.940;2023-07-22T03:40:57;97838.41;;;16.10;100.00
65754;BME280;69207;47.502;18.940;2023-07-22T03:42:00;97844.56;;;16.08;100.00
65754;BME280;69207;47.502;18.940;2023-07-22T03:43:03;97845.94;;;16.07;100.00
65754;BME280;69207;47.502;18.940;2023-07-22T03:44:06;97848.94;;;16.14;100.00
65754;BME280;69207;47.502;18.940;2023-07-22T03:45:09;97840.72;;;16.16;100.00
65754;BME280;69207;47.502;18.940;2023-07-22T03:46:12;97839.22;;;16.13;100.00
65754;BME280;69207;47.502;18.940;2023-07-22T03:47:15;97847.34;;;16.08;100.00
65754;BME280;69207;47.502;18.940;2023-07-22T03:48:18;97849.59;;;16.12;100.00
65754;BME280;69207;47.502;18.940;2023-07-22T03:49:21;97862.72;;;16.12;100.00
65754;BME280;69207;47.502;18.940;2023-07-22T03:50:24;97860.56;;;16.10;100.00
65754;BME280;69207;47.502;18.940;2023-07-22T03:51:27;97852.25;;;16.10;100.00
65754;BME280;69207;47.502;18.940;2023-07-22T03:52:30;97857.81;;;16.10;100.00
65754;BME280;69207;47.502;18.940;2023-07-22T03:53:33;97851.28;;;16.19;100.00
65754;BME280;69207;47.502;18.940;2023-07-22T03:54:36;97855.47;;;16.20;100.00
65754;BME280;69207;47.502;18.940;2023-07-22T03:55:38;97856.56;;;16.13;100.00
65754;BME280;69207;47.502;18.940;2023-07-22T03:56:41;97855.47;;;16.20;100.00
65754;BME280;69207;47.502;18.940;2023-07-22T03:57:44;97856.63;;;16.15;100.00
65754;BME280;69207;47.502;18.940;2023-07-22T03:58:47;97857.44;;;16.18;100.00
65754;BME280;69207;47.502;18.940;2023-07-22T03:59:57;97856.63;;;16.15;100.00
65754;BME280;69207;47.502;18.940;2023-07-22T04:01:00;97860.69;;;16.12;100.00
65754;BME280;69207;47.502;18.940;2023-07-22T04:02:03;97861.84;;;16.07;100.00
65754;BME280;69207;47.502;18.940;2023-07-22T04:03:06;97867.91;;;16.03;100.00
65754;BME280;69207;47.502;18.940;2023-07-22T04:04:09;97861.91;;;16.09;100.00
65754;BME280;69207;47.502;18.940;2023-07-22T04:05:12;97866.94;;;16.13;100.00
65754;BME280;69207;47.502;18.940;2023-07-22T04:06:15;97869.63;;;16.10;100.00
65754;BME280;69207;47.502;18.940;2023-07-22T04:07:18;97864.34;;;16.17;100.00
65754;BME280;69207;47.502;18.940;2023-07-22T04:08:21;97857.34;;;16.16;100.00
65754;BME280;69207;47.502;18.940;2023-07-22T04:09:26;97863.00;;;16.18;100.00
65754;BME280;69207;47.502;18.940;2023-07-22T04:10:29;97863.16;;;16.22;100.00
65754;BME280;69207;47.502;18.940;2023-07-22T04:11:32;97865.50;;;16.27;100.00
65754;BME280;69207;47.502;18.940;2023-07-22T04:12:35;97867.63;;;16.29;100.00
65754;BME280;69207;47.502;18.940;2023-07-22T04:13:38;97865.44;;;16.43;100.00
65754;BME280;69207;47.502;18.940;2023-07-22T04:14:41;97860.34;;;16.37;100.00
65754;BME280;69207;47.502;18.940;2023-07-22T04:15:44;97867.81;;;16.33;100.00
65754;BME280;69207;47.502;18.940;2023-07-22T04:16:47;97866.19;;;16.28;100.00
65754;BME280;69207;47.502;18.940;2023-07-22T04:17:50;97860.66;;;16.28;100.00
65754;BME280;69207;47.502;18.940;2023-07-22T04:18:53;97870.72;;;16.37;100.00
65754;BME280;69207;47.502;18.940;2023-07-22T04:19:55;97866.34;;;16.32;100.00
65754;BME280;69207;47.502;18.940;2023-07-22T04:20:58;97871.75;;;16.28;100.00
65754;BME280;69207;47.502;18.940;2023-07-22T04:22:02;97870.72;;;16.37;100.00
65754;BME280;69207;47.502;18.940;2023-07-22T04:23:07;97862.25;;;16.33;100.00
65754;BME280;69207;47.502;18.940;2023-07-22T04:24:10;97861.16;;;16.40;100.00
65754;BME280;69207;47.502;18.940;2023-07-22T04:25:13;97858.13;;;16.34;100.00
65754;BME280;69207;47.502;18.940;2023-07-22T04:26:17;97855.91;;;16.30;100.00
65754;BME280;69207;47.502;18.940;2023-07-22T04:27:20;97859.31;;;16.29;100.00
65754;BME280;69207;47.502;18.940;2023-07-22T04:28:23;97855.53;;;16.38;100.00
65754;BME280;69207;47.502;18.940;2023-07-22T04:29:26;97854.66;;;16.33;100.00
65754;BME280;69207;47.502;18.940;2023-07-22T04:30:29;97857.97;;;16.30;100.00
65754;BME280;69207;47.502;18.940;2023-07-22T04:31:33;97859.56;;;16.35;100.00
65754;BME280;69207;47.502;18.940;2023-07-22T04:32:36;97858.56;;;16.44;100.00
65754;BME280;69207;47.502;18.940;2023-07-22T04:33:39;97853.72;;;16.45;100.00
65754;BME280;69207;47.502;18.940;2023-07-22T04:34:44;97851.56;;;16.43;100.00
65754;BME280;69207;47.502;18.940;2023-07-22T04:35:47;97856.41;;;16.43;100.00
65754;BME280;69207;47.502;18.940;2023-07-22T04:36:50;97858.63;;;16.46;100.00
65754;BME280;69207;47.502;18.940;2023-07-22T04:37:53;97861.66;;;16.52;100.00
65754;BME280;69207;47.502;18.940;2023-07-22T04:38:55;97861.59;;;16.50;100.00
65754;BME280;69207;47.502;18.940;2023-07-22T04:39:58;97859.13;;;16.58;100.00
65754;BME280;69207;47.502;18.940;2023-07-22T04:41:02;97857.97;;;16.63;100.00
65754;BME280;69207;47.502;18.940;2023-07-22T04:42:07;97865.09;;;16.69;100.00
65754;BME280;69207;47.502;18.940;2023-07-22T04:43:10;97868.41;;;16.81;100.00
65754;BME280;69207;47.502;18.940;2023-07-22T04:44:14;97868.09;;;16.73;100.00
65754;BME280;69207;47.502;18.940;2023-07-22T04:45:17;97869.50;;;16.74;100.00
65754;BME280;69207;47.502;18.940;2023-07-22T04:46:23;97872.78;;;16.70;100.00
65754;BME280;69207;47.502;18.940;2023-07-22T04:47:26;97879.06;;;16.71;100.00
65754;BME280;69207;47.502;18.940;2023-07-22T04:48:30;97879.06;;;16.71;100.00
65754;BME280;69207;47.502;18.940;2023-07-22T04:49:33;97878.97;;;16.69;100.00
65754;BME280;69207;47.502;18.940;2023-07-22T04:50:36;97875.69;;;16.72;100.00
65754;BME280;69207;47.502;18.940;2023-07-22T04:51:47;97885.88;;;16.68;100.00
65754;BME280;69207;47.502;18.940;2023-07-22T04:52:50;97880.97;;;16.66;100.00
65754;BME280;69207;47.502;18.940;2023-07-22T04:53:53;97880.31;;;16.68;100.00
65754;BME280;69207;47.502;18.940;2023-07-22T04:54:56;97877.91;;;16.76;100.00
65754;BME280;69207;47.502;18.940;2023-07-22T04:55:59;97889.72;;;16.76;100.00
65754;BME280;69207;47.502;18.940;2023-07-22T04:57:02;97884.25;;;16.78;100.00
65754;BME280;69207;47.502;18.940;2023-07-22T04:58:05;97882.44;;;16.85;100.00
65754;BME280;69207;47.502;18.940;2023-07-22T04:59:09;97891.47;;;16.85;100.00
65754;BME280;69207;47.502;18.940;2023-07-22T05:00:12;97892.00;;;16.82;100.00
65754;BME280;69207;47.502;18.940;2023-07-22T05:01:18;97894.19;;;16.83;100.00
65754;BME280;69207;47.502;18.940;2023-07-22T05:02:21;97890.13;;;16.86;100.00
65754;BME280;69207;47.502;18.940;2023-07-22T05:03:24;97893.62;;;16.87;100.00
65754;BME280;69207;47.502;18.940;2023-07-22T05:04:29;97899.41;;;16.93;100.00
65754;BME280;69207;47.502;18.940;2023-07-22T05:05:32;97888.56;;;16.99;100.00
65754;BME280;69207;47.502;18.940;2023-07-22T05:06:35;97888.47;;;16.97;100.00
65754;BME280;69207;47.502;18.940;2023-07-22T05:07:38;97889.19;;;16.98;100.00
65754;BME280;69207;47.502;18.940;2023-07-22T05:08:41;97897.50;;;16.98;100.00
65754;BME280;69207;47.502;18.940;2023-07-22T05:09:45;97893.56;;;17.03;100.00
65754;BME280;69207;47.502;18.940;2023-07-22T05:10:48;97883.88;;;17.04;100.00
65754;BME280;69207;47.502;18.940;2023-07-22T05:11:50;97887.28;;;17.02;100.00
65754;BME280;69207;47.502;18.940;2023-07-22T05:12:53;97886.28;;;17.11;100.00
65754;BME280;69207;47.502;18.940;2023-07-22T05:13:56;97885.56;;;17.11;100.00
65754;BME280;69207;47.502;18.940;2023-07-22T05:14:59;97895.22;;;17.10;100.00
65754;BME280;69207;47.502;18.940;2023-07-22T05:16:02;97889.66;;;17.10;100.00
65754;BME280;69207;47.502;18.940;2023-07-22T05:17:05;97895.97;;;17.10;100.00
65754;BME280;69207;47.502;18.940;2023-07-22T05:18:08;97901.56;;;17.12;100.00
65754;BME280;69207;47.502;18.940;2023-07-22T05:19:11;97898.97;;;17.17;100.00
65754;BME280;69207;47.502;18.940;2023-07-22T05:20:14;97905.47;;;17.23;100.00
65754;BME280;69207;47.502;18.940;2023-07-22T05:21:17;97902.16;;;17.27;100.00
65754;BME280;69207;47.502;18.940;2023-07-22T05:22:20;97904.84;;;17.25;100.00
65754;BME280;69207;47.502;18.940;2023-07-22T05:23:23;97893.19;;;17.28;100.00
65754;BME280;69207;47.502;18.940;2023-07-22T05:24:25;97896.84;;;17.33;100.00
65754;BME280;69207;47.502;18.940;2023-07-22T05:25:28;97905.06;;;17.31;100.00
65754;BME280;69207;47.502;18.940;2023-07-22T05:26:31;97903.72;;;17.32;100.00